createdAt,value
2023-03-13T00:01:38.905Z,70.53
2023-03-13T00:03:43.095Z,63.25
2023-03-13T00:07:51.137Z,56.63
2023-03-13T00:09:55.414Z,68.90
2023-03-13T00:11:59.813Z,65.53
2023-03-13T00:14:04.804Z,65.57
2023-03-13T00:16:10.471Z,67.50
2023-03-13T00:18:14.671Z,59.17
2023-03-13T00:20:19.082Z,57.10
2023-03-13T00:24:24.377Z,64.38
2023-03-13T00:26:26.774Z,57.72
2023-03-13T00:28:31.372Z,60.95
2023-03-13T00:30:33.836Z,67.97
2023-03-13T00:32:46.205Z,59.85
2023-03-13T00:34:50.914Z,61.63
2023-03-13T00:36:52.361Z,67.68
2023-03-13T00:38:54.598Z,58.42
2023-03-13T00:40:59.530Z,69.60
2023-03-13T00:43:03.986Z,67.00
2023-03-13T00:45:08.539Z,78.25
2023-03-13T00:47:12.698Z,46.78
2023-03-13T00:49:14.130Z,73.32
2023-03-13T00:51:16.609Z,66.93
2023-03-13T00:53:21.025Z,55.65
2023-03-13T00:55:51.256Z,58.17
2023-03-13T00:57:52.865Z,65.60
2023-03-13T00:59:54.325Z,64.85
2023-03-13T01:01:55.786Z,38.53
2023-03-13T01:04:02.115Z,49.30
2023-03-13T01:06:07.715Z,45.00
2023-03-13T01:08:28.644Z,44.53
2023-03-13T01:10:30.329Z,40.42
2023-03-13T01:12:50.648Z,44.60
2023-03-13T01:14:54.821Z,47.25
2023-03-13T01:17:15.051Z,48.63
2023-03-13T01:19:17.027Z,68.10
2023-03-13T01:21:22.100Z,56.00
2023-03-13T01:23:23.697Z,52.90
2023-03-13T01:25:25.465Z,55.90
2023-03-13T01:27:26.914Z,65.07
2023-03-13T01:29:28.460Z,52.67
2023-03-13T01:31:32.193Z,68.60
2023-03-13T01:33:33.746Z,57.10
2023-03-13T01:35:37.805Z,54.13
2023-03-13T01:37:45.044Z,61.78
2023-03-13T01:39:49.288Z,62.42
2023-03-13T01:41:50.738Z,50.03
2023-03-13T01:43:52.540Z,55.08
2023-03-13T01:46:03.182Z,45.28
2023-03-13T01:48:07.631Z,60.00
2023-03-13T01:50:09.262Z,40.30
2023-03-13T01:52:16.261Z,43.92
2023-03-13T01:54:36.733Z,28.85
2023-03-13T01:56:43.150Z,35.00
2023-03-13T01:58:44.788Z,30.98
2023-03-13T02:00:47.099Z,23.98
2023-03-13T02:03:11.107Z,20.52
2023-03-13T02:05:13.662Z,25.23
2023-03-13T02:07:19.673Z,36.80
2023-03-13T02:09:40.833Z,20.90
2023-03-13T02:11:50.814Z,30.67
2023-03-13T02:14:10.870Z,41.72
2023-03-13T02:16:32.389Z,36.90
2023-03-13T02:19:02.616Z,32.05
2023-03-13T02:21:40.356Z,29.35
2023-03-13T02:24:15.742Z,38.13
2023-03-13T02:26:25.882Z,30.88
2023-03-13T02:28:43.724Z,26.88
2023-03-13T02:31:00.137Z,31.70
2023-03-13T02:33:10.657Z,30.10
2023-03-13T02:35:24.620Z,19.60
2023-03-13T02:37:39.381Z,14.93
2023-03-13T02:39:52.219Z,23.80
2023-03-13T02:42:03.543Z,19.77
2023-03-13T02:46:26.942Z,18.00
2023-03-13T02:48:41.908Z,21.42
2023-03-13T02:50:56.346Z,15.77
2023-03-13T02:53:11.586Z,20.52
2023-03-13T02:55:22.526Z,21.50
2023-03-13T02:57:24.109Z,14.35
2023-03-13T02:59:25.641Z,17.83
2023-03-13T03:01:27.325Z,28.52
2023-03-13T03:03:31.692Z,26.33
2023-03-13T03:05:33.120Z,25.50
2023-03-13T03:09:38.693Z,24.23
2023-03-13T03:11:43.210Z,28.52
2023-03-13T03:15:51.218Z,38.22
2023-03-13T03:17:52.709Z,36.78
2023-03-13T03:20:00.131Z,50.22
2023-03-13T03:22:04.566Z,47.47
2023-03-13T03:24:08.994Z,55.85
2023-03-13T03:26:10.484Z,48.42
2023-03-13T03:28:11.913Z,53.25
2023-03-13T03:30:13.572Z,57.47
2023-03-13T03:32:15.075Z,46.15
2023-03-13T03:34:16.579Z,48.13
2023-03-13T03:36:20.107Z,48.40
2023-03-13T03:38:24.210Z,53.05
2023-03-13T03:40:25.684Z,39.63
2023-03-13T03:42:30.053Z,46.00
2023-03-13T03:44:34.579Z,43.17
2023-03-13T03:46:36.046Z,41.38
2023-03-13T03:48:40.401Z,40.38
2023-03-13T03:50:41.907Z,37.35
2023-03-13T03:52:46.198Z,44.15
2023-03-13T03:54:47.679Z,42.67
2023-03-13T03:56:52.126Z,43.45
2023-03-13T03:58:56.633Z,38.35
2023-03-13T04:00:58.592Z,45.00
2023-03-13T04:03:02.876Z,45.28
2023-03-13T04:05:05.223Z,47.67
2023-03-13T04:07:06.847Z,53.60
2023-03-13T04:09:10.993Z,40.13
2023-03-13T04:11:12.515Z,44.50
2023-03-13T04:13:17.226Z,50.85
2023-03-13T04:15:21.337Z,64.20
2023-03-13T04:17:22.840Z,54.55
2023-03-13T04:19:27.065Z,48.65
2023-03-13T04:21:28.532Z,44.55
2023-03-13T04:23:29.924Z,60.40
2023-03-13T04:25:31.423Z,65.60
2023-03-13T04:27:33.692Z,60.95
2023-03-13T04:29:35.364Z,67.18
2023-03-13T04:31:36.885Z,48.72
2023-03-13T04:33:56.996Z,52.92
2023-03-13T04:35:58.450Z,53.00
2023-03-13T04:38:03.216Z,54.95
2023-03-13T04:40:05.145Z,58.97
2023-03-13T04:42:10.710Z,45.65
2023-03-13T04:44:14.832Z,57.90
2023-03-13T04:46:35.061Z,61.95
2023-03-13T04:48:36.578Z,58.30
2023-03-13T04:50:40.564Z,58.15
2023-03-13T04:52:41.958Z,60.83
2023-03-13T04:54:43.397Z,60.78
2023-03-13T04:56:47.826Z,50.58
2023-03-13T04:58:52.599Z,62.28
2023-03-13T05:00:54.180Z,71.38
2023-03-13T05:02:58.472Z,66.82
2023-03-13T05:05:00.188Z,64.40
2023-03-13T05:07:01.676Z,43.80
2023-03-13T05:09:03.774Z,50.65
2023-03-13T05:11:07.911Z,46.97
2023-03-13T05:13:09.402Z,47.20
2023-03-13T05:17:14.960Z,60.95
2023-03-13T05:19:19.311Z,38.60
2023-03-13T05:21:29.404Z,44.00
2023-03-13T05:23:46.076Z,44.80
2023-03-13T05:25:49.599Z,41.15
2023-03-13T05:27:51.169Z,44.90
2023-03-13T05:29:55.818Z,58.38
2023-03-13T05:31:57.419Z,63.28
2023-03-13T05:33:59.050Z,62.03
2023-03-13T05:36:00.592Z,54.67
2023-03-13T05:38:02.259Z,55.60
2023-03-13T05:40:22.194Z,52.08
2023-03-13T05:42:23.785Z,61.58
2023-03-13T05:44:28.364Z,79.35
2023-03-13T05:46:32.807Z,68.15
2023-03-13T05:48:37.374Z,69.85
2023-03-13T05:50:41.835Z,64.53
2023-03-13T05:52:43.398Z,72.80
2023-03-13T05:54:44.845Z,73.68
2023-03-13T05:56:50.448Z,83.93
2023-03-13T05:58:52.005Z,77.82
2023-03-13T06:00:53.494Z,75.57
2023-03-13T06:03:14.478Z,73.40
2023-03-13T06:05:16.166Z,75.97
2023-03-13T06:07:17.614Z,75.45
2023-03-13T06:09:19.187Z,76.93
2023-03-13T06:11:39.471Z,73.88
2023-03-13T06:13:43.716Z,77.75
2023-03-13T06:16:03.627Z,77.75
2023-03-13T06:18:05.299Z,67.75
2023-03-13T06:20:09.914Z,80.82
2023-03-13T06:22:11.371Z,62.40
2023-03-13T06:24:12.886Z,71.38
2023-03-13T06:26:16.924Z,80.20
2023-03-13T06:28:21.395Z,65.13
2023-03-13T06:30:22.841Z,87.35
2023-03-13T06:32:24.428Z,82.90
2023-03-13T06:34:28.977Z,84.90
2023-03-13T06:36:30.463Z,87.18
2023-03-13T06:38:34.713Z,85.90
2023-03-13T06:40:36.206Z,78.72
2023-03-13T06:42:40.465Z,76.28
2023-03-13T06:44:41.952Z,81.22
2023-03-13T06:46:46.241Z,98.10
2023-03-13T06:48:48.042Z,71.30
2023-03-13T06:50:49.670Z,66.30
2023-03-13T06:52:53.821Z,74.72
2023-03-13T06:54:55.357Z,89.03
2023-03-13T06:59:00.841Z,76.50
2023-03-13T07:01:11.964Z,79.15
2023-03-13T07:03:14.326Z,84.38
2023-03-13T07:05:18.597Z,78.90
2023-03-13T07:07:31.160Z,69.05
2023-03-13T07:09:33.438Z,66.22
2023-03-13T07:11:34.934Z,71.20
2023-03-13T07:13:38.970Z,72.65
2023-03-13T07:15:43.254Z,70.63
2023-03-13T07:18:03.526Z,75.25
2023-03-13T07:22:12.246Z,76.10
2023-03-13T07:24:13.748Z,62.55
2023-03-13T07:26:16.100Z,86.32
2023-03-13T07:28:20.595Z,78.80
2023-03-13T07:30:22.333Z,72.47
2023-03-13T07:32:30.986Z,71.38
2023-03-13T07:34:35.572Z,75.68
2023-03-13T07:36:41.553Z,77.78
2023-03-13T07:39:01.892Z,81.55
2023-03-13T07:41:06.398Z,83.45
2023-03-13T07:43:10.620Z,90.00
2023-03-13T07:45:12.160Z,73.25
2023-03-13T07:47:13.542Z,89.97
2023-03-13T07:49:15.110Z,91.32
2023-03-13T07:51:16.965Z,75.82
2023-03-13T07:53:21.346Z,87.35
2023-03-13T07:55:25.643Z,89.50
2023-03-13T07:57:46.003Z,67.40
2023-03-13T07:59:53.105Z,80.72
2023-03-13T08:01:54.704Z,71.93
2023-03-13T08:04:15.745Z,71.65
2023-03-13T08:06:23.640Z,73.22
2023-03-13T08:08:28.174Z,74.05
2023-03-13T08:10:32.189Z,71.85
2023-03-13T08:12:36.633Z,70.93
2023-03-13T08:14:41.017Z,91.60
2023-03-13T08:16:42.595Z,70.57
2023-03-13T08:18:47.004Z,68.68
2023-03-13T08:20:49.035Z,63.55
2023-03-13T08:22:55.117Z,78.13
2023-03-13T08:24:59.778Z,68.95
2023-03-13T08:27:03.085Z,71.95
2023-03-13T08:29:14.195Z,83.30
2023-03-13T08:31:31.360Z,61.38
2023-03-13T08:33:46.535Z,83.05
2023-03-13T08:36:30.303Z,87.60
2023-03-13T08:38:58.849Z,72.70
2023-03-13T08:41:11.390Z,72.25
2023-03-13T08:43:23.496Z,70.25
2023-03-13T08:45:39.173Z,77.97
2023-03-13T08:47:54.482Z,65.28
2023-03-13T08:50:25.146Z,88.50
2023-03-13T08:52:31.771Z,78.13
2023-03-13T08:54:40.090Z,62.60
2023-03-13T08:57:04.225Z,75.97
2023-03-13T08:59:11.200Z,72.28
2023-03-13T09:01:22.324Z,71.00
2023-03-13T09:03:28.338Z,78.60
2023-03-13T09:05:29.767Z,66.10
2023-03-13T09:07:50.432Z,76.88
2023-03-13T09:09:51.936Z,69.68
2023-03-13T09:12:24.576Z,65.03
2023-03-13T09:14:31.312Z,85.15
2023-03-13T09:16:51.238Z,76.03
2023-03-13T09:18:52.947Z,70.63
2023-03-13T09:21:00.571Z,76.53
2023-03-13T09:23:04.601Z,80.38
2023-03-13T09:25:06.480Z,76.57
2023-03-13T09:27:10.559Z,74.00
2023-03-13T09:29:30.714Z,73.07
2023-03-13T09:31:33.165Z,66.80
2023-03-13T09:33:37.573Z,83.45
2023-03-13T09:35:41.764Z,69.93
2023-03-13T09:37:43.327Z,77.47
2023-03-13T09:39:44.761Z,74.80
2023-03-13T09:41:57.708Z,68.03
2023-03-13T09:44:23.254Z,78.57
2023-03-13T09:46:27.817Z,66.95
2023-03-13T09:48:41.383Z,82.68
2023-03-13T09:50:52.633Z,71.60
2023-03-13T09:53:20.119Z,64.35
2023-03-13T09:55:26.169Z,85.93
2023-03-13T09:57:45.922Z,72.00
2023-03-13T10:00:12.430Z,70.55
2023-03-13T10:02:21.616Z,77.30
2023-03-13T10:04:34.872Z,69.57
2023-03-13T10:06:41.443Z,61.38
2023-03-13T10:08:43.073Z,67.75
2023-03-13T10:10:50.179Z,75.78
2023-03-13T10:12:57.612Z,71.93
2023-03-13T10:15:05.462Z,68.50
2023-03-13T10:17:24.657Z,69.25
2023-03-13T10:19:37.786Z,70.00
2023-03-13T10:21:43.262Z,65.32
2023-03-13T10:23:48.785Z,70.97
2023-03-13T10:25:50.435Z,72.35
2023-03-13T10:27:52.782Z,66.00
2023-03-13T10:29:57.178Z,74.82
2023-03-13T10:32:02.509Z,68.90
2023-03-13T10:34:09.731Z,68.03
2023-03-13T10:36:14.091Z,77.40
2023-03-13T10:38:19.635Z,69.45
2023-03-13T10:40:25.281Z,80.00
2023-03-13T10:42:28.190Z,66.43
2023-03-13T10:44:32.109Z,70.45
2023-03-13T10:46:35.267Z,72.88
2023-03-13T10:48:37.573Z,67.40
2023-03-13T10:50:41.845Z,53.08
2023-03-13T10:52:47.699Z,70.20
2023-03-13T10:54:59.188Z,65.43
2023-03-13T10:57:18.749Z,74.68
2023-03-13T10:59:24.932Z,70.10
2023-03-13T11:01:28.866Z,76.47
2023-03-13T11:03:34.405Z,56.72
2023-03-13T11:05:42.535Z,58.47
2023-03-13T11:07:46.699Z,71.68
2023-03-13T11:10:09.718Z,68.43
2023-03-13T11:12:33.532Z,64.50
2023-03-13T11:14:37.881Z,76.70
2023-03-13T11:16:46.770Z,75.35
2023-03-13T11:19:07.365Z,66.47
2023-03-13T11:21:18.572Z,66.25
2023-03-13T11:23:23.805Z,60.08
2023-03-13T11:25:35.425Z,87.10
2023-03-13T11:30:13.502Z,72.45
2023-03-13T11:32:23.097Z,81.30
2023-03-13T11:34:36.079Z,80.10
2023-03-13T11:36:45.119Z,77.15
2023-03-13T11:39:12.476Z,75.57
2023-03-13T11:41:32.042Z,75.63
2023-03-13T11:43:35.857Z,64.55
2023-03-13T11:45:56.256Z,85.70
2023-03-13T11:48:02.952Z,69.90
2023-03-13T11:50:17.196Z,67.32
2023-03-13T11:52:29.808Z,79.30
2023-03-13T11:54:39.927Z,72.35
2023-03-13T11:56:53.011Z,77.55
2023-03-13T11:59:35.343Z,79.90
2023-03-13T12:01:44.003Z,77.10
2023-03-13T12:03:51.744Z,73.30
2023-03-13T12:05:57.239Z,79.13
2023-03-13T12:08:06.423Z,68.65
2023-03-13T12:10:14.156Z,67.43
2023-03-13T12:12:20.877Z,78.55
2023-03-13T12:14:39.377Z,70.25
2023-03-13T12:16:49.737Z,57.25
2023-03-13T12:18:52.422Z,65.43
2023-03-13T12:21:00.426Z,65.68
2023-03-13T12:23:17.694Z,82.38
2023-03-13T12:25:24.009Z,62.03
2023-03-13T12:27:34.212Z,66.72
2023-03-13T12:30:00.647Z,66.90
2023-03-13T12:32:27.743Z,69.65
2023-03-13T12:34:55.573Z,59.10
2023-03-13T12:37:02.918Z,63.15
2023-03-13T12:39:22.488Z,64.90
2023-03-13T12:41:30.081Z,62.90
2023-03-13T12:43:32.944Z,61.85
2023-03-13T12:45:38.431Z,71.75
2023-03-13T12:47:53.835Z,60.63
2023-03-13T12:50:13.178Z,59.17
2023-03-13T12:52:21.418Z,64.63
2023-03-13T12:54:40.799Z,71.00
2023-03-13T12:56:58.148Z,68.05
2023-03-13T12:59:02.968Z,62.72
2023-03-13T13:01:29.585Z,63.17
2023-03-13T13:03:36.224Z,59.63
2023-03-13T13:05:40.338Z,64.78
2023-03-13T13:07:51.869Z,59.10
2023-03-13T13:10:01.045Z,69.82
2023-03-13T13:12:22.468Z,48.65
2023-03-13T13:14:27.743Z,59.15
2023-03-13T13:16:29.880Z,54.55
2023-03-13T13:18:32.372Z,54.78
2023-03-13T13:20:45.115Z,54.83
2023-03-13T13:22:47.336Z,58.30
2023-03-13T13:24:50.073Z,55.75
2023-03-13T13:26:54.168Z,62.45
2023-03-13T13:29:13.721Z,63.17
2023-03-13T13:31:34.748Z,65.25
2023-03-13T13:33:41.226Z,60.95
2023-03-13T13:36:10.870Z,72.85
2023-03-13T13:38:18.395Z,72.38
2023-03-13T13:40:25.978Z,58.22
2023-03-13T13:42:33.222Z,67.40
2023-03-13T13:44:34.806Z,59.50
2023-03-13T13:46:44.132Z,68.32
2023-03-13T13:48:45.823Z,60.70
2023-03-13T13:51:05.979Z,63.92
2023-03-13T13:53:26.351Z,70.70
2023-03-13T13:55:39.878Z,61.20
2023-03-13T13:57:43.634Z,58.13
2023-03-13T14:00:24.319Z,77.28
2023-03-13T14:02:48.358Z,56.63
2023-03-13T14:04:50.644Z,58.07
2023-03-13T14:06:57.154Z,54.83
2023-03-13T14:09:25.619Z,56.47
2023-03-13T14:11:31.455Z,63.10
2023-03-13T14:13:33.141Z,56.80
2023-03-13T14:15:34.684Z,56.80
2023-03-13T14:17:40.276Z,65.05
2023-03-13T14:19:42.919Z,57.22
2023-03-13T14:21:44.449Z,54.92
2023-03-13T14:25:50.693Z,60.10
2023-03-13T14:27:52.758Z,59.92
2023-03-13T14:30:15.360Z,71.20
2023-03-13T14:32:17.592Z,67.85
2023-03-13T14:34:19.354Z,61.03
2023-03-13T14:36:20.858Z,53.05
2023-03-13T14:38:26.076Z,52.80
2023-03-13T14:40:30.692Z,60.28
2023-03-13T14:42:41.016Z,58.35
2023-03-13T14:44:50.356Z,64.63
2023-03-13T14:46:59.223Z,58.85
2023-03-13T14:49:25.976Z,52.63
2023-03-13T14:51:36.323Z,64.55
2023-03-13T14:54:04.495Z,60.85
2023-03-13T14:56:16.710Z,57.55
2023-03-13T14:58:21.662Z,66.78
2023-03-13T15:00:52.255Z,46.03
2023-03-13T15:03:19.706Z,58.75
2023-03-13T15:05:34.863Z,50.65
2023-03-13T15:07:41.044Z,58.58
2023-03-13T15:09:47.961Z,55.30
2023-03-13T15:11:57.488Z,64.00
2023-03-13T15:14:07.873Z,63.83
2023-03-13T15:16:20.501Z,66.30
2023-03-13T15:18:26.388Z,59.88
2023-03-13T15:20:30.719Z,51.33
2023-03-13T15:22:36.999Z,59.88
2023-03-13T15:24:38.473Z,54.35
2023-03-13T15:28:46.882Z,61.57
2023-03-13T15:30:51.820Z,67.40
2023-03-13T15:32:53.585Z,59.40
2023-03-13T15:34:58.699Z,52.28
2023-03-13T15:37:03.142Z,40.90
2023-03-13T15:39:05.331Z,53.80
2023-03-13T15:41:25.334Z,60.90
2023-03-13T15:43:27.283Z,63.90
2023-03-13T15:45:28.930Z,55.47
2023-03-13T15:47:33.490Z,55.35
2023-03-13T15:49:53.618Z,55.67
2023-03-13T15:51:57.421Z,59.00
2023-03-13T15:54:02.494Z,67.75
2023-03-13T15:56:13.509Z,56.40
2023-03-13T15:58:15.835Z,57.92
2023-03-13T16:00:25.231Z,44.80
2023-03-13T16:02:26.746Z,54.70
2023-03-13T16:04:33.120Z,51.45
2023-03-13T16:06:34.676Z,58.85
2023-03-13T16:08:38.850Z,46.38
2023-03-13T16:10:41.762Z,52.72
2023-03-13T16:12:46.247Z,58.92
2023-03-13T16:14:47.853Z,55.60
2023-03-13T16:16:52.839Z,57.97
2023-03-13T16:18:55.422Z,56.22
2023-03-13T16:20:56.920Z,55.45
2023-03-13T16:23:03.985Z,45.70
2023-03-13T16:25:24.638Z,56.47
2023-03-13T16:27:27.186Z,44.42
2023-03-13T16:29:28.771Z,59.83
2023-03-13T16:33:34.260Z,68.20
2023-03-13T16:35:36.241Z,59.15
2023-03-13T16:37:40.887Z,59.72
2023-03-13T16:39:42.984Z,60.03
2023-03-13T16:41:47.253Z,54.33
2023-03-13T16:43:51.743Z,48.47
2023-03-13T16:45:53.177Z,44.33
2023-03-13T16:47:54.654Z,42.35
2023-03-13T16:49:56.077Z,49.63
2023-03-13T16:51:57.538Z,53.05
2023-03-13T16:54:01.938Z,53.83
2023-03-13T16:56:03.644Z,49.67
2023-03-13T16:58:10.937Z,47.85
2023-03-13T17:00:17.129Z,59.08
2023-03-13T17:02:21.523Z,63.15
2023-03-13T17:04:26.301Z,61.17
2023-03-13T17:06:37.815Z,56.95
2023-03-13T17:08:43.967Z,58.60
2023-03-13T17:12:57.322Z,46.22
2023-03-13T17:14:58.765Z,48.17
2023-03-13T17:17:03.418Z,55.70
2023-03-13T17:19:07.878Z,56.15
2023-03-13T17:21:14.065Z,57.72
2023-03-13T17:23:34.222Z,52.03
2023-03-13T17:25:39.466Z,50.45
2023-03-13T17:27:44.228Z,47.38
2023-03-13T17:29:45.715Z,56.28
2023-03-13T17:32:06.405Z,47.55
2023-03-13T17:34:08.484Z,47.38
2023-03-13T17:36:13.587Z,60.83
2023-03-13T17:38:15.005Z,66.43
2023-03-13T17:40:19.465Z,52.38
2023-03-13T17:42:39.286Z,56.63
2023-03-13T17:44:48.790Z,52.38
2023-03-13T17:46:53.029Z,51.65
2023-03-13T17:48:58.061Z,48.47
2023-03-13T17:51:02.326Z,52.58
2023-03-13T17:53:03.852Z,50.80
2023-03-13T17:55:05.992Z,46.13
2023-03-13T17:57:13.571Z,53.40
2023-03-13T17:59:16.215Z,51.92
2023-03-13T18:01:21.732Z,38.63
2023-03-13T18:03:23.761Z,43.03
2023-03-13T18:05:25.769Z,48.92
2023-03-13T18:07:30.112Z,46.53
2023-03-13T18:09:34.803Z,38.28
2023-03-13T18:11:39.364Z,40.70
2023-03-13T18:13:40.988Z,50.33
2023-03-13T18:15:45.556Z,43.05
2023-03-13T18:17:47.168Z,37.75
2023-03-13T18:20:13.016Z,54.53
2023-03-13T18:22:15.598Z,49.88
2023-03-13T18:24:17.873Z,48.08
2023-03-13T18:26:19.271Z,35.53
2023-03-13T18:28:20.897Z,37.50
2023-03-13T18:30:25.849Z,23.42
2023-03-13T18:32:27.405Z,40.97
2023-03-13T18:34:47.517Z,34.10
2023-03-13T18:36:49.025Z,33.08
2023-03-13T18:38:50.569Z,36.83
2023-03-13T18:40:51.994Z,43.38
2023-03-13T18:43:12.080Z,42.92
2023-03-13T18:45:15.191Z,50.95
2023-03-13T18:47:21.060Z,47.20
2023-03-13T18:49:24.680Z,39.00
2023-03-13T18:51:29.086Z,45.00
2023-03-13T18:53:48.982Z,53.97
2023-03-13T18:55:50.569Z,43.38
2023-03-13T18:57:55.310Z,54.67
2023-03-13T18:59:56.751Z,40.72
2023-03-13T19:02:01.199Z,40.92
2023-03-13T19:04:05.793Z,48.50
2023-03-13T19:06:25.541Z,49.55
2023-03-13T19:08:46.313Z,41.42
2023-03-13T19:10:47.791Z,38.15
2023-03-13T19:12:49.538Z,44.33
2023-03-13T19:14:54.034Z,48.97
2023-03-13T19:16:57.569Z,33.28
2023-03-13T19:18:59.194Z,60.25
2023-03-13T19:21:00.625Z,47.85
2023-03-13T19:23:05.062Z,44.97
2023-03-13T19:25:07.181Z,43.17
2023-03-13T19:27:27.025Z,38.38
2023-03-13T19:29:28.863Z,59.60
2023-03-13T19:31:49.761Z,37.13
2023-03-13T19:33:53.511Z,44.55
2023-03-13T19:35:57.800Z,51.75
2023-03-13T19:38:02.185Z,42.10
2023-03-13T19:40:08.414Z,40.70
2023-03-13T19:42:12.685Z,51.85
2023-03-13T19:44:17.547Z,42.53
2023-03-13T19:46:28.871Z,39.40
2023-03-13T19:48:30.286Z,37.20
2023-03-13T19:50:34.408Z,55.20
2023-03-13T19:52:35.941Z,43.40
2023-03-13T19:54:39.981Z,49.15
2023-03-13T19:56:46.072Z,53.20
2023-03-13T19:58:48.859Z,42.70
2023-03-13T20:00:52.992Z,45.35
2023-03-13T20:02:57.529Z,52.30
2023-03-13T20:05:01.778Z,56.83
2023-03-13T20:07:04.613Z,50.47
2023-03-13T20:09:25.035Z,57.33
2023-03-13T20:11:27.419Z,43.75
2023-03-13T20:13:29.131Z,45.17
2023-03-13T20:15:33.255Z,62.47
2023-03-13T20:17:53.518Z,48.22
2023-03-13T20:19:55.092Z,57.00
2023-03-13T20:22:03.519Z,45.85
2023-03-13T20:24:05.232Z,45.35
2023-03-13T20:26:26.124Z,50.13
2023-03-13T20:28:27.618Z,51.88
2023-03-13T20:32:37.875Z,43.17
2023-03-13T20:34:43.672Z,55.17
2023-03-13T20:36:48.017Z,62.58
2023-03-13T20:38:52.423Z,49.28
2023-03-13T20:40:55.305Z,47.00
2023-03-13T20:43:00.230Z,45.85
2023-03-13T20:45:01.757Z,48.92
2023-03-13T20:49:12.741Z,46.45
2023-03-13T20:51:16.871Z,57.05
2023-03-13T20:53:25.095Z,57.92
2023-03-13T20:55:54.467Z,52.00
2023-03-13T20:58:09.742Z,39.90
2023-03-13T21:00:24.303Z,51.13
2023-03-13T21:02:32.124Z,47.63
2023-03-13T21:04:45.087Z,47.40
2023-03-13T21:06:56.980Z,55.10
2023-03-13T21:09:10.051Z,38.38
2023-03-13T21:11:20.648Z,35.40
2023-03-13T21:13:26.726Z,55.45
2023-03-13T21:15:36.428Z,46.15
2023-03-13T21:17:46.846Z,55.38
2023-03-13T21:19:55.206Z,53.78
2023-03-13T21:22:00.009Z,52.67
2023-03-13T21:24:04.750Z,54.38
2023-03-13T21:26:10.446Z,33.80
2023-03-13T21:28:15.440Z,53.40
2023-03-13T21:30:18.353Z,41.30
2023-03-13T21:32:19.981Z,54.30
2023-03-13T21:34:24.415Z,62.65
2023-03-13T21:36:25.845Z,59.47
2023-03-13T21:38:33.554Z,53.17
2023-03-13T21:40:39.517Z,55.35
2023-03-13T21:42:41.059Z,49.00
2023-03-13T21:45:00.934Z,57.17
2023-03-13T21:49:09.462Z,59.90
2023-03-13T21:51:13.769Z,64.47
2023-03-13T21:53:18.973Z,51.50
2023-03-13T21:55:20.556Z,59.03
2023-03-13T21:57:22.009Z,59.85
2023-03-13T21:59:27.768Z,50.17
2023-03-13T22:01:29.309Z,63.75
2023-03-13T22:03:31.902Z,51.45
2023-03-13T22:05:33.894Z,49.38
2023-03-13T22:07:38.341Z,57.72
2023-03-13T22:09:45.978Z,54.03
2023-03-13T22:11:50.239Z,56.78
2023-03-13T22:13:52.593Z,62.05
2023-03-13T22:16:12.414Z,71.50
2023-03-13T22:18:14.758Z,50.10
2023-03-13T22:20:19.180Z,49.92
2023-03-13T22:22:23.594Z,65.32
2023-03-13T22:24:25.207Z,65.53
2023-03-13T22:26:26.667Z,59.80
2023-03-13T22:28:46.610Z,54.47
2023-03-13T22:31:07.374Z,53.80
2023-03-13T22:33:11.782Z,54.05
2023-03-13T22:35:13.425Z,56.22
2023-03-13T22:37:15.367Z,61.28
2023-03-13T22:39:19.656Z,53.65
2023-03-13T22:41:24.178Z,44.72
2023-03-13T22:43:26.365Z,56.53
2023-03-13T22:45:47.364Z,56.00
2023-03-13T22:47:49.344Z,43.22
2023-03-13T22:49:53.790Z,50.28
2023-03-13T22:51:55.294Z,57.78
2023-03-13T22:53:56.904Z,69.20
2023-03-13T22:55:58.593Z,76.43
2023-03-13T22:58:18.383Z,58.88
2023-03-13T23:00:20.421Z,67.80
2023-03-13T23:02:22.284Z,45.55
2023-03-13T23:04:24.051Z,52.05
2023-03-13T23:06:25.970Z,52.05
2023-03-13T23:08:27.426Z,61.22
2023-03-13T23:10:29.032Z,51.50
2023-03-13T23:12:30.945Z,68.00
2023-03-13T23:14:32.575Z,41.83
2023-03-13T23:16:37.336Z,47.92
2023-03-13T23:18:44.525Z,47.60
2023-03-13T23:20:46.036Z,52.75
2023-03-13T23:22:50.359Z,49.35
2023-03-13T23:25:11.045Z,40.58
2023-03-13T23:27:15.168Z,42.40
2023-03-13T23:29:16.568Z,55.08
2023-03-13T23:31:19.375Z,43.28
2023-03-13T23:33:23.402Z,48.08
2023-03-13T23:35:27.864Z,50.65
2023-03-13T23:39:37.381Z,47.15
2023-03-13T23:41:38.891Z,28.98
2023-03-13T23:43:43.250Z,42.63
2023-03-13T23:45:47.516Z,38.88
2023-03-13T23:47:51.837Z,46.72
2023-03-13T23:49:53.256Z,35.50
2023-03-13T23:51:57.586Z,23.98
2023-03-13T23:54:01.188Z,25.45
2023-03-13T23:56:25.244Z,31.42
2023-03-13T23:58:38.839Z,32.22
